sensor_id;sensor_type;location;lat;lon;timestamp;P1;durP1;ratioP1;P2;durP2;ratioP2
62582;SDS011;48641;51.676;5.808;2023-01-19T00:00:58;11.30;;;5.70;;
62582;SDS011;48641;51.676;5.808;2023-01-19T00:03:24;10.57;;;5.30;;
62582;SDS011;48641;51.676;5.808;2023-01-19T00:05:49;10.00;;;5.15;;
62582;SDS011;48641;51.676;5.808;2023-01-19T00:08:15;10.02;;;5.40;;
62582;SDS011;48641;51.676;5.808;2023-01-19T00:10:46;8.85;;;4.88;;
62582;SDS011;48641;51.676;5.808;2023-01-19T00:13:14;8.70;;;4.43;;
62582;SDS011;48641;51.676;5.808;2023-01-19T00:15:41;10.10;;;5.28;;
62582;SDS011;48641;51.676;5.808;2023-01-19T00:18:07;9.85;;;4.60;;
62582;SDS011;48641;51.676;5.808;2023-01-19T00:20:32;8.32;;;4.40;;
62582;SDS011;48641;51.676;5.808;2023-01-19T00:22:59;8.75;;;5.03;;
62582;SDS011;48641;51.676;5.808;2023-01-19T00:25:26;9.05;;;4.70;;
62582;SDS011;48641;51.676;5.808;2023-01-19T00:27:52;9.98;;;4.70;;
62582;SDS011;48641;51.676;5.808;2023-01-19T00:30:17;9.25;;;4.45;;
62582;SDS011;48641;51.676;5.808;2023-01-19T00:32:43;8.85;;;4.25;;
62582;SDS011;48641;51.676;5.808;2023-01-19T00:35:09;7.57;;;4.22;;
62582;SDS011;48641;51.676;5.808;2023-01-19T00:37:34;9.32;;;4.68;;
62582;SDS011;48641;51.676;5.808;2023-01-19T00:40:00;8.98;;;4.18;;
62582;SDS011;48641;51.676;5.808;2023-01-19T00:42:25;8.52;;;4.72;;
62582;SDS011;48641;51.676;5.808;2023-01-19T00:45:12;8.55;;;4.07;;
62582;SDS011;48641;51.676;5.808;2023-01-19T00:47:39;8.90;;;3.90;;
62582;SDS011;48641;51.676;5.808;2023-01-19T00:50:05;7.75;;;4.07;;
62582;SDS011;48641;51.676;5.808;2023-01-19T00:52:32;8.40;;;3.90;;
62582;SDS011;48641;51.676;5.808;2023-01-19T00:54:58;10.00;;;4.18;;
62582;SDS011;48641;51.676;5.808;2023-01-19T00:57:23;7.22;;;3.72;;
62582;SDS011;48641;51.676;5.808;2023-01-19T00:59:51;8.00;;;3.75;;
62582;SDS011;48641;51.676;5.808;2023-01-19T01:02:17;7.93;;;4.00;;
62582;SDS011;48641;51.676;5.808;2023-01-19T01:04:42;7.88;;;3.85;;
62582;SDS011;48641;51.676;5.808;2023-01-19T01:07:08;7.20;;;3.58;;
62582;SDS011;48641;51.676;5.808;2023-01-19T01:09:34;8.77;;;4.35;;
62582;SDS011;48641;51.676;5.808;2023-01-19T01:11:59;7.80;;;3.70;;
62582;SDS011;48641;51.676;5.808;2023-01-19T01:14:25;6.78;;;3.53;;
62582;SDS011;48641;51.676;5.808;2023-01-19T01:16:50;7.13;;;3.78;;
62582;SDS011;48641;51.676;5.808;2023-01-19T01:19:16;8.20;;;3.90;;
62582;SDS011;48641;51.676;5.808;2023-01-19T01:21:42;8.68;;;3.88;;
62582;SDS011;48641;51.676;5.808;2023-01-19T01:24:07;8.13;;;3.42;;
62582;SDS011;48641;51.676;5.808;2023-01-19T01:26:34;6.97;;;3.58;;
62582;SDS011;48641;51.676;5.808;2023-01-19T01:28:59;7.38;;;3.42;;
62582;SDS011;48641;51.676;5.808;2023-01-19T01:31:25;7.35;;;3.67;;
62582;SDS011;48641;51.676;5.808;2023-01-19T01:33:51;7.70;;;3.38;;
62582;SDS011;48641;51.676;5.808;2023-01-19T01:36:16;7.88;;;3.70;;
62582;SDS011;48641;51.676;5.808;2023-01-19T01:38:45;7.97;;;3.63;;
62582;SDS011;48641;51.676;5.808;2023-01-19T01:41:10;7.53;;;3.53;;
62582;SDS011;48641;51.676;5.808;2023-01-19T01:43:44;8.50;;;3.28;;
62582;SDS011;48641;51.676;5.808;2023-01-19T01:46:14;6.45;;;3.00;;
62582;SDS011;48641;51.676;5.808;2023-01-19T01:48:52;6.55;;;3.17;;
62582;SDS011;48641;51.676;5.808;2023-01-19T01:51:27;7.95;;;3.15;;
62582;SDS011;48641;51.676;5.808;2023-01-19T01:54:03;8.30;;;3.45;;
62582;SDS011;48641;51.676;5.808;2023-01-19T01:56:34;7.22;;;3.22;;
62582;SDS011;48641;51.676;5.808;2023-01-19T01:59:04;7.10;;;3.03;;
62582;SDS011;48641;51.676;5.808;2023-01-19T02:01:32;7.18;;;3.53;;
62582;SDS011;48641;51.676;5.808;2023-01-19T02:04:17;7.13;;;3.35;;
62582;SDS011;48641;51.676;5.808;2023-01-19T02:06:43;7.38;;;3.05;;
62582;SDS011;48641;51.676;5.808;2023-01-19T02:09:27;6.95;;;3.30;;
62582;SDS011;48641;51.676;5.808;2023-01-19T02:12:15;6.53;;;2.90;;
62582;SDS011;48641;51.676;5.808;2023-01-19T02:15:00;7.10;;;3.00;;
62582;SDS011;48641;51.676;5.808;2023-01-19T02:17:25;7.75;;;3.35;;
62582;SDS011;48641;51.676;5.808;2023-01-19T02:19:51;7.32;;;2.95;;
62582;SDS011;48641;51.676;5.808;2023-01-19T02:22:19;7.75;;;3.08;;
62582;SDS011;48641;51.676;5.808;2023-01-19T02:24:52;7.63;;;3.10;;
62582;SDS011;48641;51.676;5.808;2023-01-19T02:27:18;7.50;;;3.20;;
62582;SDS011;48641;51.676;5.808;2023-01-19T02:29:44;7.32;;;2.80;;
62582;SDS011;48641;51.676;5.808;2023-01-19T02:32:10;6.45;;;2.92;;
62582;SDS011;48641;51.676;5.808;2023-01-19T02:34:36;5.68;;;2.70;;
62582;SDS011;48641;51.676;5.808;2023-01-19T02:37:04;6.65;;;2.80;;
62582;SDS011;48641;51.676;5.808;2023-01-19T02:39:52;6.10;;;2.58;;
62582;SDS011;48641;51.676;5.808;2023-01-19T02:42:28;7.10;;;2.65;;
62582;SDS011;48641;51.676;5.808;2023-01-19T02:45:04;6.22;;;2.60;;
62582;SDS011;48641;51.676;5.808;2023-01-19T02:47:37;7.18;;;3.15;;
62582;SDS011;48641;51.676;5.808;2023-01-19T02:50:04;6.65;;;2.65;;
62582;SDS011;48641;51.676;5.808;2023-01-19T02:52:49;6.40;;;2.72;;
62582;SDS011;48641;51.676;5.808;2023-01-19T02:55:19;5.53;;;2.60;;
62582;SDS011;48641;51.676;5.808;2023-01-19T03:00:36;5.90;;;2.58;;
62582;SDS011;48641;51.676;5.808;2023-01-19T03:03:31;6.53;;;2.70;;
62582;SDS011;48641;51.676;5.808;2023-01-19T03:11:50;6.15;;;2.50;;
62582;SDS011;48641;51.676;5.808;2023-01-19T03:14:24;5.30;;;2.05;;
62582;SDS011;48641;51.676;5.808;2023-01-19T03:16:56;6.90;;;2.85;;
62582;SDS011;48641;51.676;5.808;2023-01-19T03:19:27;6.07;;;2.50;;
62582;SDS011;48641;51.676;5.808;2023-01-19T03:21:59;6.88;;;2.70;;
62582;SDS011;48641;51.676;5.808;2023-01-19T03:24:37;6.15;;;2.40;;
62582;SDS011;48641;51.676;5.808;2023-01-19T03:27:08;5.43;;;2.25;;
62582;SDS011;48641;51.676;5.808;2023-01-19T03:29:37;6.05;;;2.55;;
62582;SDS011;48641;51.676;5.808;2023-01-19T03:32:08;5.47;;;2.33;;
62582;SDS011;48641;51.676;5.808;2023-01-19T03:34:37;5.75;;;2.47;;
62582;SDS011;48641;51.676;5.808;2023-01-19T03:37:05;5.20;;;2.20;;
62582;SDS011;48641;51.676;5.808;2023-01-19T03:39:34;4.32;;;2.08;;
62582;SDS011;48641;51.676;5.808;2023-01-19T03:42:07;6.22;;;1.98;;
62582;SDS011;48641;51.676;5.808;2023-01-19T03:44:37;5.45;;;2.40;;
62582;SDS011;48641;51.676;5.808;2023-01-19T03:47:04;5.43;;;2.38;;
62582;SDS011;48641;51.676;5.808;2023-01-19T03:49:32;4.97;;;2.15;;
62582;SDS011;48641;51.676;5.808;2023-01-19T03:52:00;4.90;;;2.22;;
62582;SDS011;48641;51.676;5.808;2023-01-19T03:54:26;5.25;;;2.17;;
62582;SDS011;48641;51.676;5.808;2023-01-19T03:56:52;4.53;;;2.00;;
62582;SDS011;48641;51.676;5.808;2023-01-19T03:59:18;6.00;;;2.38;;
62582;SDS011;48641;51.676;5.808;2023-01-19T04:01:45;5.03;;;2.08;;
62582;SDS011;48641;51.676;5.808;2023-01-19T04:04:12;5.85;;;2.17;;
62582;SDS011;48641;51.676;5.808;2023-01-19T04:06:39;4.50;;;2.00;;
62582;SDS011;48641;51.676;5.808;2023-01-19T04:09:05;5.53;;;2.20;;
62582;SDS011;48641;51.676;5.808;2023-01-19T04:11:32;4.55;;;1.90;;
62582;SDS011;48641;51.676;5.808;2023-01-19T04:13:58;4.72;;;1.98;;
62582;SDS011;48641;51.676;5.808;2023-01-19T04:16:23;5.25;;;1.88;;
62582;SDS011;48641;51.676;5.808;2023-01-19T04:18:49;4.25;;;2.10;;
62582;SDS011;48641;51.676;5.808;2023-01-19T04:21:16;4.43;;;1.75;;
62582;SDS011;48641;51.676;5.808;2023-01-19T04:23:44;3.55;;;1.67;;
62582;SDS011;48641;51.676;5.808;2023-01-19T04:26:10;4.85;;;1.90;;
62582;SDS011;48641;51.676;5.808;2023-01-19T04:28:35;3.28;;;1.42;;
62582;SDS011;48641;51.676;5.808;2023-01-19T04:31:02;3.90;;;1.70;;
62582;SDS011;48641;51.676;5.808;2023-01-19T04:33:28;5.10;;;2.00;;
62582;SDS011;48641;51.676;5.808;2023-01-19T04:35:54;3.85;;;1.65;;
62582;SDS011;48641;51.676;5.808;2023-01-19T04:38:21;4.78;;;1.83;;
62582;SDS011;48641;51.676;5.808;2023-01-19T04:40:47;3.85;;;1.55;;
62582;SDS011;48641;51.676;5.808;2023-01-19T04:43:14;3.55;;;1.67;;
62582;SDS011;48641;51.676;5.808;2023-01-19T04:45:40;4.25;;;1.52;;
62582;SDS011;48641;51.676;5.808;2023-01-19T04:48:05;4.35;;;1.83;;
62582;SDS011;48641;51.676;5.808;2023-01-19T04:50:31;5.10;;;1.60;;
62582;SDS011;48641;51.676;5.808;2023-01-19T04:52:57;4.07;;;1.60;;
62582;SDS011;48641;51.676;5.808;2023-01-19T04:55:23;4.53;;;1.60;;
62582;SDS011;48641;51.676;5.808;2023-01-19T04:57:48;3.42;;;1.45;;
62582;SDS011;48641;51.676;5.808;2023-01-19T05:00:14;3.58;;;1.50;;
62582;SDS011;48641;51.676;5.808;2023-01-19T05:02:40;3.80;;;1.50;;
62582;SDS011;48641;51.676;5.808;2023-01-19T05:05:09;3.53;;;1.33;;
62582;SDS011;48641;51.676;5.808;2023-01-19T05:07:35;3.80;;;1.70;;
62582;SDS011;48641;51.676;5.808;2023-01-19T05:10:01;3.53;;;1.38;;
62582;SDS011;48641;51.676;5.808;2023-01-19T05:12:27;3.10;;;1.40;;
62582;SDS011;48641;51.676;5.808;2023-01-19T05:14:52;2.80;;;1.30;;
62582;SDS011;48641;51.676;5.808;2023-01-19T05:17:18;3.08;;;1.25;;
62582;SDS011;48641;51.676;5.808;2023-01-19T05:19:44;3.55;;;1.40;;
62582;SDS011;48641;51.676;5.808;2023-01-19T05:22:09;2.78;;;1.20;;
62582;SDS011;48641;51.676;5.808;2023-01-19T05:24:35;3.03;;;1.35;;
62582;SDS011;48641;51.676;5.808;2023-01-19T05:27:00;2.55;;;1.10;;
62582;SDS011;48641;51.676;5.808;2023-01-19T05:29:26;2.83;;;1.20;;
62582;SDS011;48641;51.676;5.808;2023-01-19T05:31:52;3.72;;;1.40;;
62582;SDS011;48641;51.676;5.808;2023-01-19T05:34:17;2.10;;;1.20;;
62582;SDS011;48641;51.676;5.808;2023-01-19T05:36:43;2.10;;;1.00;;
62582;SDS011;48641;51.676;5.808;2023-01-19T05:39:08;3.20;;;1.30;;
62582;SDS011;48641;51.676;5.808;2023-01-19T05:41:36;4.28;;;1.27;;
62582;SDS011;48641;51.676;5.808;2023-01-19T05:44:02;3.08;;;1.00;;
62582;SDS011;48641;51.676;5.808;2023-01-19T05:46:27;2.22;;;1.02;;
62582;SDS011;48641;51.676;5.808;2023-01-19T05:48:53;1.75;;;1.02;;
62582;SDS011;48641;51.676;5.808;2023-01-19T05:51:18;3.47;;;1.25;;
62582;SDS011;48641;51.676;5.808;2023-01-19T05:53:44;2.05;;;1.02;;
62582;SDS011;48641;51.676;5.808;2023-01-19T05:56:09;2.13;;;0.93;;
62582;SDS011;48641;51.676;5.808;2023-01-19T05:58:35;2.70;;;1.00;;
62582;SDS011;48641;51.676;5.808;2023-01-19T06:03:32;2.15;;;1.00;;
62582;SDS011;48641;51.676;5.808;2023-01-19T06:05:59;2.67;;;1.02;;
62582;SDS011;48641;51.676;5.808;2023-01-19T06:08:25;1.65;;;0.70;;
62582;SDS011;48641;51.676;5.808;2023-01-19T06:10:51;2.70;;;1.10;;
62582;SDS011;48641;51.676;5.808;2023-01-19T06:13:17;2.10;;;0.90;;
62582;SDS011;48641;51.676;5.808;2023-01-19T06:15:43;1.73;;;0.82;;
62582;SDS011;48641;51.676;5.808;2023-01-19T06:18:09;1.42;;;0.77;;
62582;SDS011;48641;51.676;5.808;2023-01-19T06:20:35;2.33;;;0.80;;
62582;SDS011;48641;51.676;5.808;2023-01-19T06:23:01;1.90;;;0.80;;
62582;SDS011;48641;51.676;5.808;2023-01-19T06:25:27;1.38;;;0.60;;
62582;SDS011;48641;51.676;5.808;2023-01-19T06:27:52;2.35;;;0.93;;
62582;SDS011;48641;51.676;5.808;2023-01-19T06:30:18;1.63;;;0.80;;
62582;SDS011;48641;51.676;5.808;2023-01-19T06:32:44;3.10;;;0.90;;
62582;SDS011;48641;51.676;5.808;2023-01-19T06:35:09;1.88;;;0.75;;
62582;SDS011;48641;51.676;5.808;2023-01-19T06:37:36;2.03;;;0.88;;
62582;SDS011;48641;51.676;5.808;2023-01-19T06:40:01;1.52;;;0.70;;
62582;SDS011;48641;51.676;5.808;2023-01-19T06:42:27;1.40;;;0.60;;
62582;SDS011;48641;51.676;5.808;2023-01-19T06:44:53;1.42;;;0.80;;
62582;SDS011;48641;51.676;5.808;2023-01-19T06:47:18;1.35;;;0.70;;
62582;SDS011;48641;51.676;5.808;2023-01-19T06:49:44;1.48;;;0.70;;
62582;SDS011;48641;51.676;5.808;2023-01-19T06:52:10;1.52;;;0.65;;
62582;SDS011;48641;51.676;5.808;2023-01-19T06:54:39;2.10;;;0.90;;
62582;SDS011;48641;51.676;5.808;2023-01-19T06:57:05;1.30;;;0.70;;
62582;SDS011;48641;51.676;5.808;2023-01-19T06:59:31;2.58;;;0.88;;
62582;SDS011;48641;51.676;5.808;2023-01-19T07:01:56;1.58;;;0.70;;
62582;SDS011;48641;51.676;5.808;2023-01-19T07:04:22;2.35;;;0.80;;
62582;SDS011;48641;51.676;5.808;2023-01-19T07:06:48;1.52;;;0.55;;
62582;SDS011;48641;51.676;5.808;2023-01-19T07:09:14;1.85;;;0.70;;
62582;SDS011;48641;51.676;5.808;2023-01-19T07:11:41;2.03;;;0.77;;
62582;SDS011;48641;51.676;5.808;2023-01-19T07:14:06;1.75;;;0.88;;
62582;SDS011;48641;51.676;5.808;2023-01-19T07:16:32;3.50;;;1.65;;
62582;SDS011;48641;51.676;5.808;2023-01-19T07:18:58;5.85;;;2.20;;
62582;SDS011;48641;51.676;5.808;2023-01-19T07:21:23;5.85;;;1.98;;
62582;SDS011;48641;51.676;5.808;2023-01-19T07:23:49;5.35;;;1.65;;
62582;SDS011;48641;51.676;5.808;2023-01-19T07:26:16;7.82;;;2.08;;
62582;SDS011;48641;51.676;5.808;2023-01-19T07:28:48;6.07;;;1.98;;
62582;SDS011;48641;51.676;5.808;2023-01-19T07:31:14;4.90;;;1.90;;
62582;SDS011;48641;51.676;5.808;2023-01-19T07:33:40;4.38;;;1.60;;
62582;SDS011;48641;51.676;5.808;2023-01-19T07:36:06;4.78;;;1.70;;
62582;SDS011;48641;51.676;5.808;2023-01-19T07:38:33;5.35;;;2.15;;
62582;SDS011;48641;51.676;5.808;2023-01-19T07:41:05;6.65;;;2.47;;
62582;SDS011;48641;51.676;5.808;2023-01-19T07:43:32;6.13;;;2.53;;
62582;SDS011;48641;51.676;5.808;2023-01-19T07:45:58;9.02;;;2.92;;
62582;SDS011;48641;51.676;5.808;2023-01-19T07:48:26;9.18;;;2.40;;
62582;SDS011;48641;51.676;5.808;2023-01-19T07:50:52;9.25;;;2.47;;
62582;SDS011;48641;51.676;5.808;2023-01-19T07:53:17;5.95;;;2.25;;
62582;SDS011;48641;51.676;5.808;2023-01-19T07:55:43;7.05;;;1.90;;
62582;SDS011;48641;51.676;5.808;2023-01-19T07:58:09;8.88;;;1.92;;
62582;SDS011;48641;51.676;5.808;2023-01-19T08:00:35;5.75;;;1.98;;
62582;SDS011;48641;51.676;5.808;2023-01-19T08:03:02;5.03;;;1.85;;
62582;SDS011;48641;51.676;5.808;2023-01-19T08:05:29;6.20;;;1.83;;
62582;SDS011;48641;51.676;5.808;2023-01-19T08:07:56;4.72;;;1.73;;
62582;SDS011;48641;51.676;5.808;2023-01-19T08:10:23;5.13;;;1.90;;
62582;SDS011;48641;51.676;5.808;2023-01-19T08:12:51;3.60;;;1.58;;
62582;SDS011;48641;51.676;5.808;2023-01-19T08:15:21;4.25;;;1.45;;
62582;SDS011;48641;51.676;5.808;2023-01-19T08:17:58;4.50;;;1.65;;
62582;SDS011;48641;51.676;5.808;2023-01-19T08:20:33;5.32;;;1.55;;
62582;SDS011;48641;51.676;5.808;2023-01-19T08:22:58;3.92;;;1.58;;
62582;SDS011;48641;51.676;5.808;2023-01-19T08:25:35;4.28;;;1.50;;
62582;SDS011;48641;51.676;5.808;2023-01-19T08:28:03;3.67;;;1.40;;
62582;SDS011;48641;51.676;5.808;2023-01-19T08:30:30;3.50;;;1.40;;
62582;SDS011;48641;51.676;5.808;2023-01-19T08:32:56;6.50;;;1.60;;
62582;SDS011;48641;51.676;5.808;2023-01-19T08:35:28;4.68;;;1.38;;
62582;SDS011;48641;51.676;5.808;2023-01-19T08:37:55;4.35;;;1.50;;
62582;SDS011;48641;51.676;5.808;2023-01-19T08:40:24;4.55;;;1.50;;
62582;SDS011;48641;51.676;5.808;2023-01-19T08:42:57;3.60;;;1.40;;
62582;SDS011;48641;51.676;5.808;2023-01-19T08:45:27;4.47;;;1.48;;
62582;SDS011;48641;51.676;5.808;2023-01-19T08:47:55;3.33;;;1.35;;
62582;SDS011;48641;51.676;5.808;2023-01-19T08:50:32;5.03;;;1.50;;
62582;SDS011;48641;51.676;5.808;2023-01-19T08:52:59;3.28;;;1.23;;
62582;SDS011;48641;51.676;5.808;2023-01-19T08:55:27;4.05;;;1.30;;
62582;SDS011;48641;51.676;5.808;2023-01-19T08:57:53;3.80;;;1.70;;
62582;SDS011;48641;51.676;5.808;2023-01-19T09:00:23;3.08;;;1.30;;
62582;SDS011;48641;51.676;5.808;2023-01-19T09:02:51;4.03;;;1.02;;
62582;SDS011;48641;51.676;5.808;2023-01-19T09:05:18;3.10;;;1.35;;
62582;SDS011;48641;51.676;5.808;2023-01-19T09:07:44;3.50;;;1.35;;
62582;SDS011;48641;51.676;5.808;2023-01-19T09:10:12;2.78;;;1.25;;
62582;SDS011;48641;51.676;5.808;2023-01-19T09:12:38;3.30;;;1.40;;
62582;SDS011;48641;51.676;5.808;2023-01-19T09:15:04;3.15;;;1.27;;
62582;SDS011;48641;51.676;5.808;2023-01-19T09:17:30;3.13;;;1.48;;
62582;SDS011;48641;51.676;5.808;2023-01-19T09:19:56;4.45;;;1.30;;
62582;SDS011;48641;51.676;5.808;2023-01-19T09:22:22;2.88;;;1.23;;
62582;SDS011;48641;51.676;5.808;2023-01-19T09:24:48;2.95;;;1.20;;
62582;SDS011;48641;51.676;5.808;2023-01-19T09:27:13;3.05;;;1.42;;
62582;SDS011;48641;51.676;5.808;2023-01-19T09:29:39;3.75;;;1.50;;
62582;SDS011;48641;51.676;5.808;2023-01-19T09:32:04;3.70;;;1.60;;
62582;SDS011;48641;51.676;5.808;2023-01-19T09:34:30;2.38;;;1.15;;
62582;SDS011;48641;51.676;5.808;2023-01-19T09:36:56;3.60;;;1.17;;
62582;SDS011;48641;51.676;5.808;2023-01-19T09:39:21;3.47;;;1.35;;
62582;SDS011;48641;51.676;5.808;2023-01-19T09:41:54;3.25;;;1.17;;
62582;SDS011;48641;51.676;5.808;2023-01-19T09:46:53;2.92;;;1.30;;
62582;SDS011;48641;51.676;5.808;2023-01-19T09:49:20;4.10;;;1.67;;
62582;SDS011;48641;51.676;5.808;2023-01-19T09:51:52;3.85;;;1.45;;
62582;SDS011;48641;51.676;5.808;2023-01-19T09:54:19;3.22;;;1.30;;
62582;SDS011;48641;51.676;5.808;2023-01-19T09:56:53;3.72;;;1.60;;
62582;SDS011;48641;51.676;5.808;2023-01-19T09:59:23;3.50;;;1.40;;
62582;SDS011;48641;51.676;5.808;2023-01-19T10:01:58;3.95;;;1.58;;
62582;SDS011;48641;51.676;5.808;2023-01-19T10:04:43;5.57;;;1.90;;
62582;SDS011;48641;51.676;5.808;2023-01-19T10:10:25;4.22;;;1.80;;
62582;SDS011;48641;51.676;5.808;2023-01-19T10:18:21;4.07;;;1.65;;
62582;SDS011;48641;51.676;5.808;2023-01-19T10:21:13;5.05;;;1.77;;
62582;SDS011;48641;51.676;5.808;2023-01-19T10:23:56;4.03;;;1.70;;
62582;SDS011;48641;51.676;5.808;2023-01-19T10:26:33;4.93;;;1.65;;
62582;SDS011;48641;51.676;5.808;2023-01-19T10:29:12;4.47;;;1.90;;
62582;SDS011;48641;51.676;5.808;2023-01-19T10:31:39;5.75;;;2.20;;
62582;SDS011;48641;51.676;5.808;2023-01-19T10:34:09;4.78;;;2.10;;
62582;SDS011;48641;51.676;5.808;2023-01-19T10:36:42;5.82;;;2.33;;
62582;SDS011;48641;51.676;5.808;2023-01-19T10:39:10;5.55;;;1.90;;
62582;SDS011;48641;51.676;5.808;2023-01-19T10:41:43;5.88;;;2.15;;
62582;SDS011;48641;51.676;5.808;2023-01-19T10:44:09;5.65;;;1.90;;
62582;SDS011;48641;51.676;5.808;2023-01-19T10:46:43;4.45;;;1.80;;
62582;SDS011;48641;51.676;5.808;2023-01-19T10:49:23;5.45;;;1.95;;
62582;SDS011;48641;51.676;5.808;2023-01-19T10:51:50;5.32;;;2.20;;
62582;SDS011;48641;51.676;5.808;2023-01-19T10:54:16;5.82;;;2.08;;
62582;SDS011;48641;51.676;5.808;2023-01-19T10:56:44;6.13;;;2.35;;
62582;SDS011;48641;51.676;5.808;2023-01-19T11:02:21;4.38;;;1.85;;
62582;SDS011;48641;51.676;5.808;2023-01-19T11:04:50;5.00;;;2.13;;
62582;SDS011;48641;51.676;5.808;2023-01-19T11:07:22;5.00;;;2.05;;
62582;SDS011;48641;51.676;5.808;2023-01-19T11:12:42;5.90;;;2.50;;
62582;SDS011;48641;51.676;5.808;2023-01-19T11:15:14;6.25;;;2.42;;
62582;SDS011;48641;51.676;5.808;2023-01-19T11:17:45;5.57;;;1.98;;
62582;SDS011;48641;51.676;5.808;2023-01-19T11:20:38;6.15;;;2.30;;
62582;SDS011;48641;51.676;5.808;2023-01-19T11:23:18;5.65;;;1.95;;
62582;SDS011;48641;51.676;5.808;2023-01-19T11:28:23;5.63;;;2.10;;
62582;SDS011;48641;51.676;5.808;2023-01-19T11:30:54;5.97;;;2.10;;
62582;SDS011;48641;51.676;5.808;2023-01-19T11:34:03;6.28;;;2.40;;
62582;SDS011;48641;51.676;5.808;2023-01-19T11:36:31;4.75;;;2.15;;
62582;SDS011;48641;51.676;5.808;2023-01-19T11:39:01;5.35;;;2.17;;
62582;SDS011;48641;51.676;5.808;2023-01-19T11:41:50;6.10;;;2.40;;
62582;SDS011;48641;51.676;5.808;2023-01-19T11:44:26;6.18;;;2.65;;
62582;SDS011;48641;51.676;5.808;2023-01-19T11:46:58;5.43;;;2.45;;
62582;SDS011;48641;51.676;5.808;2023-01-19T11:49:35;6.45;;;2.60;;
62582;SDS011;48641;51.676;5.808;2023-01-19T11:52:48;6.32;;;2.30;;
62582;SDS011;48641;51.676;5.808;2023-01-19T11:55:31;6.07;;;2.42;;
62582;SDS011;48641;51.676;5.808;2023-01-19T11:58:07;5.40;;;2.20;;
62582;SDS011;48641;51.676;5.808;2023-01-19T12:00:41;6.13;;;2.45;;
62582;SDS011;48641;51.676;5.808;2023-01-19T12:05:45;6.45;;;2.10;;
62582;SDS011;48641;51.676;5.808;2023-01-19T12:08:24;6.63;;;2.40;;
62582;SDS011;48641;51.676;5.808;2023-01-19T12:10:56;6.03;;;2.58;;
62582;SDS011;48641;51.676;5.808;2023-01-19T12:13:24;5.80;;;2.60;;
62582;SDS011;48641;51.676;5.808;2023-01-19T12:15:53;6.57;;;2.85;;
62582;SDS011;48641;51.676;5.808;2023-01-19T12:18:44;6.25;;;2.20;;
62582;SDS011;48641;51.676;5.808;2023-01-19T12:21:30;5.35;;;2.17;;
62582;SDS011;48641;51.676;5.808;2023-01-19T12:26:40;5.70;;;2.33;;
62582;SDS011;48641;51.676;5.808;2023-01-19T12:29:16;5.90;;;2.10;;
62582;SDS011;48641;51.676;5.808;2023-01-19T12:31:43;5.68;;;2.05;;
62582;SDS011;48641;51.676;5.808;2023-01-19T12:36:54;4.75;;;1.92;;
62582;SDS011;48641;51.676;5.808;2023-01-19T12:39:30;5.70;;;2.22;;
62582;SDS011;48641;51.676;5.808;2023-01-19T12:42:29;5.28;;;2.17;;
62582;SDS011;48641;51.676;5.808;2023-01-19T12:44:48;4.97;;;2.08;;
62582;SDS011;48641;51.676;5.808;2023-01-19T12:47:28;5.50;;;2.15;;
62582;SDS011;48641;51.676;5.808;2023-01-19T12:49:55;4.78;;;2.17;;
62582;SDS011;48641;51.676;5.808;2023-01-19T12:52:26;5.40;;;1.90;;
62582;SDS011;48641;51.676;5.808;2023-01-19T13:02:49;5.53;;;2.03;;
62582;SDS011;48641;51.676;5.808;2023-01-19T13:13:22;4.35;;;1.67;;
62582;SDS011;48641;51.676;5.808;2023-01-19T13:15:50;4.82;;;2.00;;
62582;SDS011;48641;51.676;5.808;2023-01-19T13:18:38;4.32;;;1.80;;
62582;SDS011;48641;51.676;5.808;2023-01-19T13:21:04;5.55;;;2.30;;
62582;SDS011;48641;51.676;5.808;2023-01-19T13:26:26;5.68;;;1.90;;
62582;SDS011;48641;51.676;5.808;2023-01-19T13:28:55;5.75;;;2.40;;
62582;SDS011;48641;51.676;5.808;2023-01-19T13:31:34;5.25;;;1.77;;
62582;SDS011;48641;51.676;5.808;2023-01-19T13:34:02;4.22;;;1.67;;
62582;SDS011;48641;51.676;5.808;2023-01-19T13:36:35;4.82;;;1.70;;
62582;SDS011;48641;51.676;5.808;2023-01-19T13:39:10;5.30;;;2.42;;
62582;SDS011;48641;51.676;5.808;2023-01-19T13:41:39;6.15;;;2.17;;
62582;SDS011;48641;51.676;5.808;2023-01-19T13:44:08;5.88;;;2.05;;
62582;SDS011;48641;51.676;5.808;2023-01-19T13:46:41;4.43;;;1.92;;
62582;SDS011;48641;51.676;5.808;2023-01-19T13:49:13;4.35;;;1.70;;
62582;SDS011;48641;51.676;5.808;2023-01-19T13:54:50;4.93;;;1.70;;
62582;SDS011;48641;51.676;5.808;2023-01-19T14:00:12;4.15;;;1.50;;
62582;SDS011;48641;51.676;5.808;2023-01-19T14:02:41;4.75;;;1.67;;
62582;SDS011;48641;51.676;5.808;2023-01-19T14:05:24;3.90;;;1.60;;
62582;SDS011;48641;51.676;5.808;2023-01-19T14:08:25;4.38;;;1.67;;
62582;SDS011;48641;51.676;5.808;2023-01-19T14:13:21;3.30;;;1.35;;
62582;SDS011;48641;51.676;5.808;2023-01-19T14:15:48;4.15;;;1.60;;
62582;SDS011;48641;51.676;5.808;2023-01-19T14:21:16;4.60;;;1.50;;
62582;SDS011;48641;51.676;5.808;2023-01-19T14:34:37;5.32;;;1.70;;
62582;SDS011;48641;51.676;5.808;2023-01-19T14:37:34;5.57;;;1.77;;
62582;SDS011;48641;51.676;5.808;2023-01-19T14:42:36;4.30;;;1.70;;
62582;SDS011;48641;51.676;5.808;2023-01-19T14:45:38;3.95;;;1.52;;
62582;SDS011;48641;51.676;5.808;2023-01-19T14:48:12;4.68;;;1.45;;
62582;SDS011;48641;51.676;5.808;2023-01-19T14:50:41;5.07;;;1.88;;
62582;SDS011;48641;51.676;5.808;2023-01-19T14:53:20;5.05;;;1.83;;
62582;SDS011;48641;51.676;5.808;2023-01-19T14:55:56;4.85;;;1.77;;
62582;SDS011;48641;51.676;5.808;2023-01-19T14:58:25;5.43;;;1.90;;
62582;SDS011;48641;51.676;5.808;2023-01-19T15:00:52;3.45;;;1.33;;
62582;SDS011;48641;51.676;5.808;2023-01-19T15:03:21;3.65;;;1.48;;
62582;SDS011;48641;51.676;5.808;2023-01-19T15:05:48;3.17;;;1.27;;
62582;SDS011;48641;51.676;5.808;2023-01-19T15:08:25;4.60;;;1.52;;
62582;SDS011;48641;51.676;5.808;2023-01-19T15:10:57;5.30;;;1.55;;
62582;SDS011;48641;51.676;5.808;2023-01-19T15:13:27;4.47;;;1.60;;
62582;SDS011;48641;51.676;5.808;2023-01-19T15:15:52;3.40;;;1.42;;
62582;SDS011;48641;51.676;5.808;2023-01-19T15:18:19;3.28;;;1.50;;
62582;SDS011;48641;51.676;5.808;2023-01-19T15:20:48;4.18;;;1.48;;
62582;SDS011;48641;51.676;5.808;2023-01-19T15:23:14;3.88;;;1.50;;
62582;SDS011;48641;51.676;5.808;2023-01-19T15:25:40;3.35;;;1.63;;
62582;SDS011;48641;51.676;5.808;2023-01-19T15:28:09;5.18;;;1.75;;
62582;SDS011;48641;51.676;5.808;2023-01-19T15:30:37;3.40;;;1.40;;
62582;SDS011;48641;51.676;5.808;2023-01-19T15:33:02;3.42;;;1.35;;
62582;SDS011;48641;51.676;5.808;2023-01-19T15:35:28;5.53;;;1.73;;
62582;SDS011;48641;51.676;5.808;2023-01-19T15:37:54;4.57;;;1.60;;
62582;SDS011;48641;51.676;5.808;2023-01-19T15:40:20;4.60;;;1.50;;
62582;SDS011;48641;51.676;5.808;2023-01-19T15:42:47;3.85;;;1.73;;
62582;SDS011;48641;51.676;5.808;2023-01-19T15:45:28;4.35;;;1.65;;
62582;SDS011;48641;51.676;5.808;2023-01-19T15:48:02;2.95;;;1.42;;
62582;SDS011;48641;51.676;5.808;2023-01-19T15:50:29;5.50;;;1.70;;
62582;SDS011;48641;51.676;5.808;2023-01-19T15:52:56;6.32;;;1.85;;
62582;SDS011;48641;51.676;5.808;2023-01-19T15:55:22;8.95;;;2.75;;
62582;SDS011;48641;51.676;5.808;2023-01-19T15:57:47;14.77;;;7.45;;
62582;SDS011;48641;51.676;5.808;2023-01-19T16:00:13;18.60;;;8.98;;
62582;SDS011;48641;51.676;5.808;2023-01-19T16:02:39;19.80;;;7.93;;
62582;SDS011;48641;51.676;5.808;2023-01-19T16:05:05;15.25;;;8.52;;
62582;SDS011;48641;51.676;5.808;2023-01-19T16:07:31;16.00;;;8.32;;
62582;SDS011;48641;51.676;5.808;2023-01-19T16:10:00;15.63;;;6.80;;
62582;SDS011;48641;51.676;5.808;2023-01-19T16:12:27;14.80;;;7.10;;
62582;SDS011;48641;51.676;5.808;2023-01-19T16:14:53;13.45;;;6.50;;
62582;SDS011;48641;51.676;5.808;2023-01-19T16:17:18;14.63;;;6.97;;
62582;SDS011;48641;51.676;5.808;2023-01-19T16:19:44;14.73;;;5.63;;
62582;SDS011;48641;51.676;5.808;2023-01-19T16:22:10;13.02;;;6.00;;
62582;SDS011;48641;51.676;5.808;2023-01-19T16:24:35;16.60;;;5.65;;